KAPF/APF METAR and TAF weather

Enter ICAO airport designator
Station Type Date Time Source
KAPF METAR 2021/09/16 20:51 UTC NOAA

KAPF 162051Z 23006KT 1SM VCTS +RA BR OVC029 24/23 A2998 RMK AO2 WSHFT 1949 LTG DSNT E AND S PNO $


Station Type Date Time Source
KAPF Decoded METAR 2021/09/16 20:51 UTC NOAA

NAPLES MUNICIPAL AIRPORT, FL, United States (KAPF) 26-09N 081-46W
Sep 16, 2021 - 04:51 PM EDT / 2021.09.16 2051 UTC
Wind: from the SW (230 degrees) at 7 MPH (6 KT):0
Visibility: 1 mile(s):0
Sky conditions: overcast
Weather: thunder in the vicinity; heavy rain; mist; Lightning observed
Temperature: 75 F (24 C)
Dew Point: 73 F (23 C)
Relative Humidity: 94%
Pressure (altimeter): 29.98 in. Hg (1015 hPa)
ob: KAPF 162051Z 23006KT 1SM VCTS +RA BR OVC029 24/23 A2998 RMK AO2 WSHFT 1949 LTG DSNT E AND S PNO
cycle: 21

Station Type Date Time Source
KAPF TAF 2021/09/16 21:36 UTC NOAA

TAF
AMD KAPF 162034Z 1621/1718 22008KT P6SM VCTS SCT020CB BKN025
TEMPO 1621/1623 VRB12G22KT 3SM TSRA BKN025CB
FM170100 VRB04KT P6SM VCSH SCT025 BKN050
FM171600 20006KT P6SM VCSH SCT030 BKN050

Example: see airport list